Time,TemperatureF,DewpointF,PressureIn,WindDirection,WindDirectionDegrees,WindSpeedMPH,WindSpeedGustMPH,Humidity,HourlyPrecipIn,Conditions,Clouds,dailyrainin,SolarRadiationWatts/m^2,SoftwareType,DateUTC
2013-04-21 00:06:00,34.5,27.0,30.44,South,182,3.0,7.0,75,0.00,,,0.00,0,weatherlink.com 1.10,2013-04-21 05:06:00,
2013-04-21 00:21:00,34.6,27.0,30.44,South,171,2.0,7.0,74,0.00,,,0.00,0,weatherlink.com 1.10,2013-04-21 05:21:00,
2013-04-21 00:36:00,34.7,27.0,30.44,SSE,167,2.0,8.0,74,0.00,,,0.00,0,weatherlink.com 1.10,2013-04-21 05:36:00,
2013-04-21 00:51:00,34.7,28.0,30.44,South,182,2.0,8.0,75,0.00,,,0.00,0,weatherlink.com 1.10,2013-04-21 05:51:00,
2013-04-21 01:06:00,34.7,28.0,30.44,South,190,3.0,7.0,75,0.00,,,0.00,0,weatherlink.com 1.10,2013-04-21 06:06:00,
2013-04-21 01:21:00,34.7,27.0,30.44,South,178,2.0,8.0,74,0.00,,,0.00,0,weatherlink.com 1.10,2013-04-21 06:21:00,
2013-04-21 01:37:00,34.7,27.0,30.45,South,180,2.0,6.0,74,0.00,,,0.00,0,weatherlink.com 1.10,2013-04-21 06:37:00,
2013-04-21 01:52:00,34.7,28.0,30.44,SSW,200,2.0,6.0,75,0.00,,,0.00,0,weatherlink.com 1.10,2013-04-21 06:52:00,
2013-04-21 02:07:00,34.8,27.0,30.45,South,188,3.0,8.0,73,0.00,,,0.00,0,weatherlink.com 1.10,2013-04-21 07:07:00,
2013-04-21 02:22:00,34.8,27.0,30.45,South,172,2.0,9.0,73,0.00,,,0.00,0,weatherlink.com 1.10,2013-04-21 07:22:00,
2013-04-21 02:37:00,35.0,27.0,30.45,South,170,2.0,7.0,72,0.00,,,0.00,0,weatherlink.com 1.10,2013-04-21 07:37:00,
2013-04-21 02:52:00,34.8,27.0,30.46,South,179,2.0,6.0,72,0.00,,,0.00,0,weatherlink.com 1.10,2013-04-21 07:52:00,
2013-04-21 03:07:00,35.1,27.0,30.46,South,190,2.0,8.0,71,0.00,,,0.00,0,weatherlink.com 1.10,2013-04-21 08:07:00,
2013-04-21 03:22:00,35.0,26.0,30.46,South,173,2.0,8.0,69,0.00,,,0.00,0,weatherlink.com 1.10,2013-04-21 08:22:00,
2013-04-21 03:37:00,35.2,26.0,30.47,South,190,2.0,7.0,69,0.00,,,0.00,0,weatherlink.com 1.10,2013-04-21 08:37:00,
2013-04-21 03:52:00,35.2,26.0,30.47,SSE,153,3.0,8.0,69,0.00,,,0.00,0,weatherlink.com 1.10,2013-04-21 08:52:00,
2013-04-21 04:07:00,35.3,26.0,30.47,SSE,159,3.0,6.0,69,0.00,,,0.00,0,weatherlink.com 1.10,2013-04-21 09:07:00,
2013-04-21 04:22:00,35.2,26.0,30.47,South,184,2.0,7.0,70,0.00,,,0.00,0,weatherlink.com 1.10,2013-04-21 09:22:00,
2013-04-21 04:37:00,35.3,26.0,30.48,South,176,2.0,7.0,68,0.00,,,0.00,0,weatherlink.com 1.10,2013-04-21 09:37:00,
2013-04-21 04:52:00,35.2,26.0,30.48,South,186,2.0,8.0,69,0.00,,,0.00,0,weatherlink.com 1.10,2013-04-21 09:52:00,
2013-04-21 05:07:00,35.3,26.0,30.48,South,183,1.0,7.0,69,0.00,,,0.00,0,weatherlink.com 1.10,2013-04-21 10:07:00,
2013-04-21 05:22:00,35.3,26.0,30.48,South,191,2.0,5.0,69,0.00,,,0.00,0,weatherlink.com 1.10,2013-04-21 10:22:00,
2013-04-21 05:37:00,35.4,25.0,30.49,South,182,2.0,6.0,66,0.00,,,0.00,0,weatherlink.com 1.10,2013-04-21 10:37:00,
2013-04-21 05:52:00,35.9,24.0,30.50,South,188,4.0,11.0,63,0.00,,,0.00,0,weatherlink.com 1.10,2013-04-21 10:52:00,
2013-04-21 06:07:00,36.0,25.0,30.50,South,169,1.0,10.0,65,0.00,,,0.00,11,weatherlink.com 1.10,2013-04-21 11:07:00,
2013-04-21 06:22:00,36.1,24.0,30.50,South,173,1.0,7.0,63,0.00,,,0.00,28,weatherlink.com 1.10,2013-04-21 11:22:00,
2013-04-21 06:37:00,36.4,25.0,30.51,South,188,3.0,7.0,63,0.00,,,0.00,32,weatherlink.com 1.10,2013-04-21 11:37:00,
2013-04-21 06:52:00,36.7,26.0,30.51,South,175,3.0,7.0,65,0.00,,,0.00,33,weatherlink.com 1.10,2013-04-21 11:52:00,
2013-04-21 07:07:00,36.9,25.0,30.51,South,176,5.0,7.0,62,0.00,,,0.00,74,weatherlink.com 1.10,2013-04-21 12:07:00,
2013-04-21 07:22:00,37.3,25.0,30.52,South,170,2.0,7.0,62,0.00,,,0.00,107,weatherlink.com 1.10,2013-04-21 12:22:00,
2013-04-21 07:37:00,37.7,26.0,30.52,SSE,168,5.0,11.0,62,0.00,,,0.00,146,weatherlink.com 1.10,2013-04-21 12:37:00,
2013-04-21 07:52:00,37.8,26.0,30.53,SSE,163,1.0,9.0,63,0.00,,,0.00,190,weatherlink.com 1.10,2013-04-21 12:52:00,
2013-04-21 08:08:00,38.2,27.0,30.53,SSW,206,4.0,11.0,64,0.00,,,0.00,264,weatherlink.com 1.10,2013-04-21 13:08:00,
2013-04-21 08:23:00,38.4,28.0,30.54,SE,138,2.0,7.0,66,0.00,,,0.00,262,weatherlink.com 1.10,2013-04-21 13:23:00,
2013-04-21 08:38:00,39.1,29.0,30.54,South,184,6.0,8.0,66,0.00,,,0.00,476,weatherlink.com 1.10,2013-04-21 13:38:00,
2013-04-21 08:53:00,38.7,28.0,30.54,South,169,2.0,7.0,66,0.00,,,0.00,290,weatherlink.com 1.10,2013-04-21 13:53:00,
2013-04-21 09:08:00,40.0,30.0,30.54,South,171,3.0,9.0,68,0.00,,,0.00,496,weatherlink.com 1.10,2013-04-21 14:08:00,
2013-04-21 09:23:00,39.3,29.0,30.54,SSW,205,4.0,11.0,68,0.00,,,0.00,269,weatherlink.com 1.10,2013-04-21 14:23:00,
2013-04-21 09:38:00,39.5,29.0,30.54,SSE,164,5.0,11.0,67,0.00,,,0.00,466,weatherlink.com 1.10,2013-04-21 14:38:00,
2013-04-21 09:53:00,39.1,29.0,30.54,South,183,4.0,10.0,68,0.00,,,0.00,290,weatherlink.com 1.10,2013-04-21 14:53:00,
2013-04-21 10:08:00,39.1,29.0,30.54,SSW,200,5.0,10.0,68,0.00,,,0.00,302,weatherlink.com 1.10,2013-04-21 15:08:00,
2013-04-21 10:23:00,39.6,30.0,30.54,ESE,116,1.0,10.0,68,0.00,,,0.00,457,weatherlink.com 1.10,2013-04-21 15:23:00,
2013-04-21 10:38:00,40.0,29.0,30.53,South,184,4.0,11.0,65,0.00,,,0.00,490,weatherlink.com 1.10,2013-04-21 15:38:00,
2013-04-21 10:53:00,39.8,28.0,30.54,SE,143,5.0,10.0,64,0.00,,,0.00,534,weatherlink.com 1.10,2013-04-21 15:53:00,
2013-04-21 11:08:00,38.9,28.0,30.53,South,186,3.0,7.0,66,0.00,,,0.00,199,weatherlink.com 1.10,2013-04-21 16:08:00,
2013-04-21 11:23:00,39.8,29.0,30.53,SSW,192,5.0,7.0,65,0.00,,,0.00,534,weatherlink.com 1.10,2013-04-21 16:23:00,
2013-04-21 11:38:00,39.9,29.0,30.52,SSE,167,5.0,10.0,64,0.00,,,0.00,315,weatherlink.com 1.10,2013-04-21 16:38:00,
2013-04-21 11:53:00,39.3,28.0,30.51,SSW,202,3.0,10.0,65,0.00,,,0.00,306,weatherlink.com 1.10,2013-04-21 16:53:00,
2013-04-21 12:08:00,40.1,29.0,30.50,SSW,194,3.0,9.0,66,0.00,,,0.00,547,weatherlink.com 1.10,2013-04-21 17:08:00,
2013-04-21 12:23:00,40.2,28.0,30.50,SSE,167,3.0,11.0,63,0.00,,,0.00,251,weatherlink.com 1.10,2013-04-21 17:23:00,
2013-04-21 12:38:00,39.1,29.0,30.49,South,176,2.0,8.0,67,0.00,,,0.00,350,weatherlink.com 1.10,2013-04-21 17:38:00,
2013-04-21 12:53:00,41.0,30.0,30.48,South,182,2.0,9.0,66,0.00,,,0.00,671,weatherlink.com 1.10,2013-04-21 17:53:00,
2013-04-21 13:08:00,40.6,29.0,30.47,South,173,2.0,8.0,64,0.00,,,0.00,520,weatherlink.com 1.10,2013-04-21 18:08:00,
2013-04-21 13:23:00,41.3,29.0,30.46,South,182,6.0,11.0,63,0.00,,,0.00,881,weatherlink.com 1.10,2013-04-21 18:23:00,
2013-04-21 13:38:00,42.0,31.0,30.46,South,185,4.0,10.0,66,0.00,,,0.00,846,weatherlink.com 1.10,2013-04-21 18:38:00,
2013-04-21 13:53:00,42.5,31.0,30.45,SSW,201,7.0,9.0,64,0.00,,,0.00,705,weatherlink.com 1.10,2013-04-21 18:53:00,
2013-04-21 14:08:00,41.8,29.0,30.44,SSW,213,1.0,10.0,62,0.00,,,0.00,891,weatherlink.com 1.10,2013-04-21 19:08:00,
2013-04-21 14:23:00,41.9,31.0,30.44,SSW,203,2.0,9.0,65,0.00,,,0.00,425,weatherlink.com 1.10,2013-04-21 19:23:00,
2013-04-21 14:38:00,43.6,32.0,30.44,SSE,150,4.0,11.0,63,0.00,,,0.00,752,weatherlink.com 1.10,2013-04-21 19:38:00,
2013-04-21 14:53:00,42.1,30.0,30.43,South,171,4.0,11.0,63,0.00,,,0.00,622,weatherlink.com 1.10,2013-04-21 19:53:00,
2013-04-21 15:08:00,43.0,31.0,30.42,SSW,212,2.0,7.0,64,0.00,,,0.00,710,weatherlink.com 1.10,2013-04-21 20:08:00,
2013-04-21 15:23:00,42.6,31.0,30.40,SSW,205,3.0,10.0,65,0.00,,,0.00,654,weatherlink.com 1.10,2013-04-21 20:23:00,
2013-04-21 15:38:00,42.7,32.0,30.40,SE,141,3.0,9.0,67,0.00,,,0.00,603,weatherlink.com 1.10,2013-04-21 20:38:00,
2013-04-21 15:53:00,42.5,32.0,30.39,South,177,7.0,13.0,66,0.00,,,0.00,559,weatherlink.com 1.10,2013-04-21 20:53:00,
2013-04-21 16:08:00,43.0,32.0,30.39,South,189,3.0,9.0,66,0.00,,,0.00,123,weatherlink.com 1.10,2013-04-21 21:08:00,
2013-04-21 16:23:00,42.0,32.0,30.39,South,178,4.0,11.0,69,0.00,,,0.00,376,weatherlink.com 1.10,2013-04-21 21:23:00,
2013-04-21 16:38:00,41.9,32.0,30.38,South,175,5.0,10.0,68,0.00,,,0.00,113,weatherlink.com 1.10,2013-04-21 21:38:00,
2013-04-21 16:53:00,41.6,32.0,30.37,SSE,167,5.0,10.0,69,0.00,,,0.00,120,weatherlink.com 1.10,2013-04-21 21:53:00,
2013-04-21 17:08:00,41.9,32.0,30.37,South,181,3.0,8.0,68,0.00,,,0.00,113,weatherlink.com 1.10,2013-04-21 22:08:00,
2013-04-21 17:23:00,41.7,33.0,30.37,South,175,2.0,7.0,71,0.00,,,0.00,88,weatherlink.com 1.10,2013-04-21 22:23:00,
2013-04-21 17:38:00,41.8,33.0,30.36,South,180,2.0,6.0,71,0.00,,,0.00,79,weatherlink.com 1.10,2013-04-21 22:38:00,
2013-04-21 17:53:00,41.0,33.0,30.36,SSE,153,2.0,8.0,73,0.00,,,0.00,67,weatherlink.com 1.10,2013-04-21 22:53:00,
2013-04-21 18:09:00,40.5,33.0,30.35,SSE,167,1.0,7.0,74,0.00,,,0.00,60,weatherlink.com 1.10,2013-04-21 23:09:00,
2013-04-21 18:27:00,40.6,33.0,30.34,South,182,3.0,8.0,74,0.00,,,0.00,47,weatherlink.com 1.10,2013-04-21 23:27:00,
2013-04-21 18:39:00,40.5,33.0,30.34,South,182,1.0,5.0,74,0.00,,,0.00,40,weatherlink.com 1.10,2013-04-21 23:39:00,
2013-04-21 18:54:00,40.4,33.0,30.34,South,186,3.0,7.0,75,0.00,,,0.00,28,weatherlink.com 1.10,2013-04-21 23:54:00,
2013-04-21 19:09:00,40.4,33.0,30.33,SSE,165,2.0,8.0,75,0.00,,,0.00,16,weatherlink.com 1.10,2013-04-22 00:09:00,
2013-04-21 19:24:00,40.5,33.0,30.33,South,179,5.0,7.0,75,0.00,,,0.00,9,weatherlink.com 1.10,2013-04-22 00:24:00,
2013-04-21 19:39:00,40.6,33.0,30.33,SSW,204,5.0,8.0,75,0.00,,,0.00,0,weatherlink.com 1.10,2013-04-22 00:39:00,
2013-04-21 19:54:00,40.5,34.0,30.33,South,171,3.0,7.0,76,0.00,,,0.00,0,weatherlink.com 1.10,2013-04-22 00:54:00,
2013-04-21 20:09:00,40.6,34.0,30.33,SSW,196,2.0,9.0,77,0.00,,,0.00,0,weatherlink.com 1.10,2013-04-22 01:09:00,
2013-04-21 20:24:00,40.8,34.0,30.33,South,185,1.0,7.0,77,0.00,,,0.00,0,weatherlink.com 1.10,2013-04-22 01:24:00,
2013-04-21 20:39:00,41.3,34.0,30.33,South,174,4.0,8.0,76,0.00,,,0.00,0,weatherlink.com 1.10,2013-04-22 01:39:00,
2013-04-21 20:54:00,41.6,35.0,30.34,SSW,203,2.0,8.0,76,0.00,,,0.00,0,weatherlink.com 1.10,2013-04-22 01:54:00,
2013-04-21 21:09:00,42.0,35.0,30.33,SSE,155,3.0,8.0,75,0.00,,,0.00,0,weatherlink.com 1.10,2013-04-22 02:09:00,
2013-04-21 21:24:00,42.1,35.0,30.33,South,169,6.0,9.0,76,0.00,,,0.00,0,weatherlink.com 1.10,2013-04-22 02:24:00,
2013-04-21 21:39:00,42.1,35.0,30.33,SSE,161,3.0,8.0,76,0.00,,,0.00,0,weatherlink.com 1.10,2013-04-22 02:39:00,
2013-04-21 21:54:00,43.1,35.0,30.33,SSE,159,2.0,10.0,72,0.00,,,0.00,0,weatherlink.com 1.10,2013-04-22 02:54:00,
2013-04-21 22:09:00,44.1,33.0,30.32,SSE,162,2.0,10.0,66,0.00,,,0.00,0,weatherlink.com 1.10,2013-04-22 03:09:00,
2013-04-21 22:24:00,45.0,33.0,30.32,South,175,5.0,12.0,62,0.00,,,0.00,0,weatherlink.com 1.10,2013-04-22 03:24:00,
2013-04-21 22:39:00,45.2,32.0,30.32,South,176,4.0,9.0,61,0.00,,,0.00,0,weatherlink.com 1.10,2013-04-22 03:39:00,
2013-04-21 22:54:00,45.5,32.0,30.31,SSE,165,5.0,7.0,60,0.00,,,0.00,0,weatherlink.com 1.10,2013-04-22 03:54:00,
2013-04-21 23:09:00,45.6,32.0,30.31,South,180,3.0,13.0,59,0.00,,,0.00,0,weatherlink.com 1.10,2013-04-22 04:09:00,
2013-04-21 23:24:00,45.7,32.0,30.30,SSE,157,3.0,10.0,59,0.00,,,0.00,0,weatherlink.com 1.10,2013-04-22 04:24:00,
2013-04-21 23:39:00,45.4,32.0,30.30,SSE,163,4.0,11.0,60,0.00,,,0.00,0,weatherlink.com 1.10,2013-04-22 04:39:00,
2013-04-21 23:54:00,45.4,32.0,30.30,South,169,4.0,12.0,60,0.00,,,0.00,0,weatherlink.com 1.10,2013-04-22 04:54:00,